createdAt,value
2019-01-25T00:02:36.345Z,-2.37
2019-01-25T00:07:31.528Z,-2.28
2019-01-25T00:12:26.917Z,-2.32
2019-01-25T00:17:23.541Z,-2.32
2019-01-25T00:22:20.589Z,-2.37
2019-01-25T00:27:16.601Z,-2.40
2019-01-25T00:32:12.035Z,-2.35
2019-01-25T00:37:07.574Z,-2.25
2019-01-25T00:42:03.029Z,-2.38
2019-01-25T00:46:58.530Z,-2.34
2019-01-25T00:51:53.986Z,-2.34
2019-01-25T00:56:49.466Z,-2.26
2019-01-25T01:01:45.080Z,-2.35
2019-01-25T01:06:41.842Z,-2.23
2019-01-25T01:11:39.044Z,-2.38
2019-01-25T01:16:34.078Z,-2.53
2019-01-25T01:21:30.359Z,-2.58
2019-01-25T01:26:27.616Z,-2.73
2019-01-25T01:31:22.871Z,-2.69
2019-01-25T01:36:18.292Z,-2.84
2019-01-25T01:41:13.748Z,-2.76
2019-01-25T01:46:10.924Z,-2.74
2019-01-25T01:51:07.871Z,-2.65
2019-01-25T01:56:03.058Z,-2.65
2019-01-25T02:00:59.515Z,-2.66
2019-01-25T02:05:54.815Z,-2.55
2019-01-25T02:10:50.783Z,-2.69
2019-01-25T02:15:47.257Z,-2.66
2019-01-25T02:20:43.177Z,-2.69
2019-01-25T02:25:38.578Z,-2.76
2019-01-25T02:30:34.017Z,-2.66
2019-01-25T02:35:30.816Z,-2.80
2019-01-25T02:40:26.063Z,-2.92
2019-01-25T02:45:21.550Z,-2.92
2019-01-25T02:50:17.069Z,-2.73
2019-01-25T02:55:12.570Z,-2.74
2019-01-25T03:00:08.132Z,-2.77
2019-01-25T03:05:04.422Z,-2.81
2019-01-25T03:10:00.935Z,-2.74
2019-01-25T03:14:56.218Z,-2.56
2019-01-25T03:19:51.625Z,-2.70
2019-01-25T03:24:47.091Z,-2.70
2019-01-25T03:29:42.457Z,-2.74
2019-01-25T03:34:37.894Z,-2.56
2019-01-25T03:39:33.504Z,-2.44
2019-01-25T03:44:28.959Z,-2.52
2019-01-25T03:49:25.208Z,-2.40
2019-01-25T03:54:21.493Z,-2.37
2019-01-25T03:59:17.915Z,-2.37
2019-01-25T04:04:13.788Z,-2.42
2019-01-25T04:09:09.299Z,-2.52
2019-01-25T04:14:04.707Z,-2.60
2019-01-25T04:19:00.234Z,-2.50
2019-01-25T04:23:55.794Z,-2.52
2019-01-25T04:28:52.277Z,-2.42
2019-01-25T04:33:47.386Z,-2.44
2019-01-25T04:38:43.787Z,-2.42
2019-01-25T04:43:39.790Z,-2.41
2019-01-25T04:48:35.309Z,-2.48
2019-01-25T04:53:30.780Z,-2.60
2019-01-25T04:58:26.284Z,-2.73
2019-01-25T05:03:21.914Z,-2.63
2019-01-25T05:08:18.587Z,-2.73
2019-01-25T05:13:14.725Z,-2.71
2019-01-25T05:18:09.950Z,-2.69
2019-01-25T05:23:05.277Z,-2.70
2019-01-25T05:28:01.595Z,-2.70
2019-01-25T05:32:57.940Z,-2.71
2019-01-25T05:37:53.169Z,-2.60
2019-01-25T05:42:48.760Z,-2.77
2019-01-25T05:47:44.189Z,-2.83
2019-01-25T05:52:39.668Z,-2.80
2019-01-25T05:57:35.045Z,-2.69
2019-01-25T06:02:30.569Z,-2.56
2019-01-25T06:07:26.400Z,-2.62
2019-01-25T06:12:21.870Z,-2.60
2019-01-25T06:17:17.285Z,-2.65
2019-01-25T06:22:13.885Z,-2.58
2019-01-25T06:27:08.965Z,-2.71
2019-01-25T06:32:05.052Z,-2.74
2019-01-25T06:37:00.425Z,-2.73
2019-01-25T06:41:57.131Z,-2.73
2019-01-25T06:46:52.245Z,-2.73
2019-01-25T06:51:48.923Z,-2.86
2019-01-25T06:56:44.212Z,-2.98
2019-01-25T07:01:41.506Z,-2.99
2019-01-25T07:06:36.604Z,-2.97
2019-01-25T07:11:32.254Z,-2.91
2019-01-25T07:16:27.777Z,-2.98
2019-01-25T07:21:24.249Z,-2.97
2019-01-25T07:26:20.432Z,-2.94
2019-01-25T07:31:15.648Z,-3.10
2019-01-25T07:36:11.209Z,-3.13
2019-01-25T07:41:06.663Z,-3.15
2019-01-25T07:46:02.927Z,-3.19
2019-01-25T07:50:58.413Z,-3.20
2019-01-25T07:55:53.762Z,-3.20
2019-01-25T08:00:50.165Z,-3.22
2019-01-25T08:05:45.707Z,-3.19
2019-01-25T08:10:42.392Z,-3.19
2019-01-25T08:15:37.502Z,-3.12
2019-01-25T08:20:33.095Z,-3.09
2019-01-25T08:25:28.499Z,-2.86
2019-01-25T08:30:24.119Z,-2.71
2019-01-25T08:35:19.703Z,-3.06
2019-01-25T08:40:16.245Z,-2.97
2019-01-25T08:45:11.753Z,-2.92
2019-01-25T08:50:08.364Z,-2.71
2019-01-25T08:55:03.803Z,-2.71
2019-01-25T08:59:59.456Z,-2.59
2019-01-25T09:04:55.917Z,-2.59
2019-01-25T09:09:51.435Z,-2.42
2019-01-25T09:14:46.968Z,-2.47
2019-01-25T09:19:42.487Z,-2.42
2019-01-25T09:24:38.477Z,-2.47
2019-01-25T09:29:35.029Z,-2.56
2019-01-25T09:34:30.177Z,-2.63
2019-01-25T09:39:26.787Z,-2.53
2019-01-25T09:44:22.408Z,-2.44
2019-01-25T09:49:18.974Z,-2.53
2019-01-25T09:54:15.268Z,-2.41
2019-01-25T09:59:11.468Z,-2.25
2019-01-25T10:04:08.899Z,-2.35
2019-01-25T10:09:05.159Z,-2.28
2019-01-25T10:14:00.409Z,-2.13
2019-01-25T10:18:56.053Z,-2.01
2019-01-25T10:23:51.794Z,-1.98
2019-01-25T10:28:47.388Z,-1.90
2019-01-25T10:33:42.855Z,-1.90
2019-01-25T10:38:39.597Z,-1.71
2019-01-25T10:43:34.924Z,-1.76
2019-01-25T10:48:31.841Z,-1.71
2019-01-25T10:53:27.846Z,-1.56
2019-01-25T10:58:23.917Z,-1.53
2019-01-25T11:03:20.293Z,-1.48
2019-01-25T11:08:15.665Z,-1.40
2019-01-25T11:13:11.239Z,-1.25
2019-01-25T11:18:07.426Z,-1.17
2019-01-25T11:23:02.846Z,-1.09
2019-01-25T11:27:58.442Z,-0.97
2019-01-25T11:32:53.795Z,-1.12
2019-01-25T11:37:49.385Z,-1.19
2019-01-25T11:42:45.954Z,-1.17
2019-01-25T11:47:41.050Z,-1.15
2019-01-25T11:52:37.640Z,-1.30
2019-01-25T11:57:33.586Z,-1.22
2019-01-25T12:02:28.608Z,-1.14
2019-01-25T12:07:25.129Z,-1.19
2019-01-25T12:12:21.208Z,-1.19
2019-01-25T12:17:18.767Z,-1.12
2019-01-25T12:22:14.010Z,-1.07
2019-01-25T12:27:09.892Z,-0.97
2019-01-25T12:32:05.408Z,-1.08
2019-01-25T12:37:04.628Z,-0.99
2019-01-25T12:41:59.268Z,-1.01
2019-01-25T12:46:54.788Z,-0.99
2019-01-25T12:51:51.285Z,-0.82
2019-01-25T12:56:46.252Z,-0.67
2019-01-25T13:01:41.780Z,-0.65
2019-01-25T13:06:37.315Z,-0.68
2019-01-25T13:11:33.359Z,-0.52
2019-01-25T13:16:29.005Z,-0.61
2019-01-25T13:21:24.592Z,-0.64
2019-01-25T13:26:21.201Z,-0.47
2019-01-25T13:31:17.554Z,-0.50
2019-01-25T13:36:13.829Z,-0.47
2019-01-25T13:41:08.862Z,-0.34
2019-01-25T13:46:04.511Z,-0.32
2019-01-25T13:51:00.096Z,-0.29
2019-01-25T13:55:56.697Z,-0.23
2019-01-25T14:00:53.364Z,-0.18
2019-01-25T14:05:48.515Z,-0.14
2019-01-25T14:10:44.863Z," 0.00"
2019-01-25T14:15:41.136Z," 0.03"
2019-01-25T14:20:36.474Z," 0.00"
2019-01-25T14:25:32.093Z," 0.18"
2019-01-25T14:30:28.875Z," 0.23"
2019-01-25T14:35:24.341Z," 0.25"
2019-01-25T14:40:21.062Z," 0.34"
2019-01-25T14:45:16.510Z," 0.50"
2019-01-25T14:50:12.108Z," 0.56"
2019-01-25T14:55:08.973Z," 0.62"
2019-01-25T15:00:05.193Z," 0.68"
2019-01-25T15:05:00.502Z," 0.74"
2019-01-25T15:09:56.198Z," 0.76"
2019-01-25T15:14:52.631Z," 0.84"
2019-01-25T15:19:48.288Z," 0.98"
2019-01-25T15:24:44.959Z," 1.01"
2019-01-25T15:29:41.132Z," 1.01"
2019-01-25T15:34:36.512Z," 1.02"
2019-01-25T15:39:32.069Z," 1.06"
2019-01-25T15:44:27.763Z," 1.05"
2019-01-25T15:49:23.406Z," 1.12"
2019-01-25T15:54:19.129Z," 1.08"
2019-01-25T15:59:14.741Z," 1.06"
2019-01-25T16:04:11.326Z," 1.02"
2019-01-25T16:09:07.702Z," 1.01"
2019-01-25T16:14:03.397Z," 1.02"
2019-01-25T16:18:58.754Z," 1.10"
2019-01-25T16:23:54.370Z," 1.12"
2019-01-25T16:28:50.147Z," 1.06"
2019-01-25T16:33:45.744Z," 1.05"
2019-01-25T16:38:41.713Z," 1.05"
2019-01-25T16:43:37.228Z," 1.12"
2019-01-25T16:48:33.020Z," 1.06"
2019-01-25T16:53:30.167Z," 1.05"
2019-01-25T16:58:25.777Z," 1.13"
2019-01-25T17:03:21.224Z," 1.10"
2019-01-25T17:08:17.884Z," 1.10"
2019-01-25T17:13:14.084Z," 1.06"
2019-01-25T17:18:09.244Z," 1.06"
2019-01-25T17:23:04.911Z," 1.06"
2019-01-25T17:28:00.135Z," 1.06"
2019-01-25T17:32:56.813Z," 1.12"
2019-01-25T17:37:52.015Z," 1.12"
2019-01-25T17:42:47.920Z," 1.10"
2019-01-25T17:47:43.577Z," 1.13"
2019-01-25T17:52:39.046Z," 1.16"
2019-01-25T17:57:34.627Z," 1.31"
2019-01-25T18:02:30.229Z," 1.31"
2019-01-25T18:07:26.793Z," 1.35"
2019-01-25T18:12:23.028Z," 1.38"
2019-01-25T18:17:18.617Z," 1.41"
2019-01-25T18:22:14.419Z," 1.45"
2019-01-25T18:27:10.434Z," 1.44"
2019-01-25T18:32:05.959Z," 1.50"
2019-01-25T18:37:02.878Z," 1.59"
2019-01-25T18:41:59.702Z," 1.50"
2019-01-25T18:46:55.892Z," 1.67"
2019-01-25T18:51:52.700Z," 1.63"
2019-01-25T18:56:48.774Z," 1.73"
2019-01-25T19:01:44.304Z," 1.73"
2019-01-25T19:06:39.692Z," 1.73"
2019-01-25T19:11:35.338Z," 1.78"
2019-01-25T19:16:30.799Z," 1.80"
2019-01-25T19:21:26.368Z," 1.84"
2019-01-25T19:26:22.830Z," 1.92"
2019-01-25T19:31:18.515Z," 1.91"
2019-01-25T19:36:15.098Z," 2.06"
2019-01-25T19:41:10.242Z," 2.10"
2019-01-25T19:46:05.850Z," 2.11"
2019-01-25T19:51:01.592Z," 2.06"
2019-01-25T19:55:58.143Z," 2.13"
2019-01-25T20:00:54.189Z," 2.18"
2019-01-25T20:05:49.816Z," 2.18"
2019-01-25T20:10:45.489Z," 2.22"
2019-01-25T20:15:41.289Z," 2.29"
2019-01-25T20:20:37.970Z," 2.35"
2019-01-25T20:25:33.151Z," 2.43"
2019-01-25T20:30:28.685Z," 2.36"
2019-01-25T20:35:26.269Z," 2.57"
2019-01-25T20:40:22.665Z," 2.51"
2019-01-25T20:45:17.872Z," 2.62"
2019-01-25T20:50:13.544Z," 2.51"
2019-01-25T20:55:09.125Z," 2.62"
2019-01-25T21:00:08.572Z," 2.61"
2019-01-25T21:05:03.292Z," 2.56"
2019-01-25T21:09:59.016Z," 2.68"
2019-01-25T21:14:54.515Z," 2.65"
2019-01-25T21:19:51.032Z," 2.72"
2019-01-25T21:24:47.454Z," 2.74"
2019-01-25T21:29:42.726Z," 2.69"
2019-01-25T21:34:38.234Z," 2.72"
2019-01-25T21:39:34.009Z," 2.80"
2019-01-25T21:44:30.129Z," 2.89"
2019-01-25T21:49:25.709Z," 2.80"
2019-01-25T21:54:22.272Z," 2.86"
2019-01-25T21:59:18.530Z," 2.85"
2019-01-25T22:04:13.967Z," 2.89"
2019-01-25T22:09:09.422Z," 2.86"
2019-01-25T22:14:05.726Z," 2.89"
2019-01-25T22:19:01.442Z," 2.92"
2019-01-25T22:23:58.695Z," 2.87"
2019-01-25T22:28:54.179Z," 2.85"
2019-01-25T22:33:49.734Z," 2.97"
2019-01-25T22:38:45.457Z," 3.04"
2019-01-25T22:43:41.237Z," 3.23"
2019-01-25T22:48:37.647Z," 3.28"
2019-01-25T22:53:33.388Z," 3.18"
2019-01-25T22:58:29.676Z," 3.29"
2019-01-25T23:03:25.377Z," 3.36"
2019-01-25T23:08:21.008Z," 3.37"
2019-01-25T23:13:17.531Z," 3.50"
2019-01-25T23:18:12.965Z," 3.42"
2019-01-25T23:23:09.762Z," 3.53"
2019-01-25T23:28:04.999Z," 3.45"
2019-01-25T23:33:00.404Z," 3.55"
2019-01-25T23:37:56.107Z," 3.63"
2019-01-25T23:42:51.972Z," 3.68"
2019-01-25T23:47:48.338Z," 3.68"
2019-01-25T23:52:44.065Z," 3.63"
2019-01-25T23:57:40.402Z," 3.92"
